Time;durP1;ratioP1;P1;durP2;ratioP2;P2;SDS_P1;SDS_P2;PMS_P1;PMS_P2;Temp;Humidity;BMP_temperature;BMP_pressure;BME280_temperature;BME280_humidity;BME280_pressure;Samples;Min_cycle;Max_cycle;Signal;HPM_P1;HPM_P2
2022/01/01 00:02:18;;;;;;;;;;;;;;;;;;5097638;28;19964;-29
2022/01/01 00:04:44;;;;;;;;;;;;;;;;;;5098704;28;20010;-34
2022/01/01 00:07:10;;;;;;;;;;;;;;;;;;5098874;28;20000;-32
2022/01/01 00:09:36;;;;;;;;;;;;;;;;;;5098822;28;19913;-30
2022/01/01 00:12:02;;;;;;;;;;;;;;;;;;5098729;28;19982;-31
2022/01/01 00:14:28;;;;;;;;;;;;;;;;;;5098556;28;20335;-35
2022/01/01 00:16:54;;;;;;;;;;;;;;;;;;5098164;28;20284;-33
2022/01/01 00:19:20;;;;;;;;;;;;;;;;;;5098396;28;19916;-35
2022/01/01 00:21:46;;;;;;;;;;;;;;;;;;5098269;28;19909;-33
2022/01/01 00:24:12;;;;;;;;;;;;;;;;;;5098352;28;19949;-33
2022/01/01 00:26:38;;;;;;;;;;;;;;;;;;5098259;28;20426;-31
2022/01/01 00:29:04;;;;;;;;;;;;;;;;;;5098448;28;19950;-30
2022/01/01 00:31:30;;;;;;;;;;;;;;;;;;5098479;28;20258;-31
2022/01/01 00:33:57;;;;;;;;;;;;;;;;;;5098055;28;19919;-34
2022/01/01 00:36:23;;;;;;;;;;;;;;;;;;5098245;28;19920;-31
2022/01/01 00:38:49;;;;;;;;;;;;;;;;;;5097982;28;20394;-33
2022/01/01 00:41:16;;;;;;;;;;;;;;;;;;5098181;28;20050;-29
2022/01/01 00:43:42;;;;;;;;;;;;;;;;;;5097770;28;19973;-34
2022/01/01 00:46:08;;;;;;;;;;;;;;;;;;5098157;28;19916;-31
2022/01/01 00:48:34;;;;;;;;;;;;;;;;;;5097840;28;19912;-32
2022/01/01 00:51:00;;;;;;;;;;;;;;;;;;5097797;28;19966;-31
2022/01/01 00:53:26;;;;;;;;;;;;;;;;;;5098194;28;19915;-33
2022/01/01 00:55:52;;;;;;;;;;;;;;;;;;5097750;28;20259;-34
2022/01/01 00:58:18;;;;;;;;;;;;;;;;;;5097591;28;19916;-34
2022/01/01 01:00:44;;;;;;;;;;;;;;;;;;5096714;28;19912;-31
2022/01/01 01:03:10;;;;;;;;;;;;;;;;;;5097510;28;19974;-34
2022/01/01 01:05:38;;;;;;;;;;;;;;;;;;5097476;28;20387;-31
2022/01/01 01:08:04;;;;;;;;;;;;;;;;;;5097675;28;20248;-31
2022/01/01 01:10:30;;;;;;;;;;;;;;;;;;5097600;28;19912;-33
2022/01/01 01:12:56;;;;;;;;;;;;;;;;;;5097299;28;19908;-34
2022/01/01 01:15:24;;;;;;;;;;;;;;;;;;5096312;28;20053;-33
2022/01/01 01:17:50;;;;;;;;;;;;;;;;;;5097041;28;20244;-33
2022/01/01 01:20:16;;;;;;;;;;;;;;;;;;5097489;28;19908;-31
2022/01/01 01:22:42;;;;;;;;;;;;;;;;;;5097065;28;20351;-32
2022/01/01 01:25:08;;;;;;;;;;;;;;;;;;5096108;28;19916;-33
2022/01/01 01:27:35;;;;;;;;;;;;;;;;;;5097040;28;19970;-32
2022/01/01 01:30:01;;;;;;;;;;;;;;;;;;5097225;28;19919;-32
2022/01/01 01:32:27;;;;;;;;;;;;;;;;;;5096974;28;19962;-33
2022/01/01 01:34:53;;;;;;;;;;;;;;;;;;5095994;28;19912;-31
2022/01/01 01:37:21;;;;;;;;;;;;;;;;;;5096863;28;19970;-34
2022/01/01 01:39:47;;;;;;;;;;;;;;;;;;5096874;28;19972;-29
2022/01/01 01:42:14;;;;;;;;;;;;;;;;;;5096669;28;19908;-35
2022/01/01 01:44:44;;;;;;;;;;;;;;;;;;5096959;28;20240;-32
2022/01/01 01:47:15;;;;;;;;;;;;;;;;;;5095733;28;19922;-30
2022/01/01 01:49:42;;;;;;;;;;;;;;;;;;5097450;28;19912;-31
2022/01/01 01:52:08;;;;;;;;;;;;;;;;;;5096512;28;20073;-31
2022/01/01 01:54:34;;;;;;;;;;;;;;;;;;5096557;28;19960;-34
2022/01/01 01:57:00;;;;;;;;;;;;;;;;;;5096499;28;19912;-34
2022/01/01 01:59:26;;;;;;;;;;;;;;;;;;5096690;28;19939;-28
2022/01/01 02:01:52;;;;;;;;;;;;;;;;;;5096378;28;20382;-34
2022/01/01 02:04:18;;;;;;;;;;;;;;;;;;5096389;28;19941;-33
2022/01/01 02:06:44;;;;;;;;;;;;;;;;;;5096655;28;20220;-33
2022/01/01 02:09:11;;;;;;;;;;;;;;;;;;5096269;28;19912;-30
2022/01/01 02:11:37;;;;;;;;;;;;;;;;;;5096169;28;19952;-35
2022/01/01 02:14:09;;;;;;;;;;;;;;;;;;5096154;28;19908;-30
2022/01/01 02:16:50;;;;;;;;;;;;;;;;;;5095873;28;19920;-31
2022/01/01 02:19:16;;;;;;;;;;;;;;;;;;5096119;28;19919;-34
2022/01/01 02:21:42;;;;;;;;;;;;;;;;;;5096334;28;20347;-31
2022/01/01 02:24:09;;;;;;;;;;;;;;;;;;5095924;28;20038;-33
2022/01/01 02:26:35;;;;;;;;;;;;;;;;;;5096002;28;20334;-34
2022/01/01 02:29:02;;;;;;;;;;;;;;;;;;5095909;28;20285;-31
2022/01/01 02:31:29;;;;;;;;;;;;;;;;;;5096137;28;19908;-30
2022/01/01 02:33:55;;;;;;;;;;;;;;;;;;5096080;28;20052;-28
2022/01/01 02:36:21;;;;;;;;;;;;;;;;;;5094671;28;20343;-34
2022/01/01 02:38:47;;;;;;;;;;;;;;;;;;5096050;28;19969;-31
2022/01/01 02:41:13;;;;;;;;;;;;;;;;;;5095921;28;19913;-30
2022/01/01 02:43:39;;;;;;;;;;;;;;;;;;5095608;28;20435;-36
2022/01/01 02:46:05;;;;;;;;;;;;;;;;;;5095556;28;19912;-33
2022/01/01 02:48:31;;;;;;;;;;;;;;;;;;5095826;28;19912;-35
2022/01/01 02:50:57;;;;;;;;;;;;;;;;;;5095515;28;19919;-29
2022/01/01 02:53:23;;;;;;;;;;;;;;;;;;5094445;28;20357;-33
2022/01/01 02:55:49;;;;;;;;;;;;;;;;;;5095682;28;19946;-36
2022/01/01 02:58:15;;;;;;;;;;;;;;;;;;5095288;28;20259;-33
2022/01/01 03:00:41;;;;;;;;;;;;;;;;;;5095372;28;19915;-35
2022/01/01 03:03:07;;;;;;;;;;;;;;;;;;5095263;28;19912;-35
2022/01/01 03:05:35;;;;;;;;;;;;;;;;;;5095283;28;19965;-35
2022/01/01 03:08:01;;;;;;;;;;;;;;;;;;5095488;28;19939;-37
2022/01/01 03:10:27;;;;;;;;;;;;;;;;;;5095488;28;20347;-34
2022/01/01 03:12:53;;;;;;;;;;;;;;;;;;5095089;28;19916;-33
2022/01/01 03:15:19;;;;;;;;;;;;;;;;;;5095383;28;20327;-36
2022/01/01 03:17:45;;;;;;;;;;;;;;;;;;5094912;28;19970;-35
2022/01/01 03:20:11;;;;;;;;;;;;;;;;;;5095294;28;20270;-34
2022/01/01 03:22:37;;;;;;;;;;;;;;;;;;5095093;28;19912;-30
2022/01/01 03:25:03;;;;;;;;;;;;;;;;;;5094509;28;19912;-33
2022/01/01 03:27:30;;;;;;;;;;;;;;;;;;5094965;28;20354;-36
2022/01/01 03:29:56;;;;;;;;;;;;;;;;;;5094859;28;19955;-33
2022/01/01 03:32:22;;;;;;;;;;;;;;;;;;5095062;28;19912;-32
2022/01/01 03:34:48;;;;;;;;;;;;;;;;;;5094884;28;19913;-29
2022/01/01 03:37:14;;;;;;;;;;;;;;;;;;5095100;28;20353;-30
2022/01/01 03:39:40;;;;;;;;;;;;;;;;;;5093920;28;19912;-31
2022/01/01 03:42:06;;;;;;;;;;;;;;;;;;5094814;28;20331;-34
2022/01/01 03:44:32;;;;;;;;;;;;;;;;;;5095119;28;19920;-30
2022/01/01 03:47:09;;;;;;;;;;;;;;;;;;5094893;28;20323;-33
2022/01/01 03:49:35;;;;;;;;;;;;;;;;;;5095150;28;19916;-35
2022/01/01 03:52:01;;;;;;;;;;;;;;;;;;5095041;28;19912;-34
2022/01/01 03:54:27;;;;;;;;;;;;;;;;;;5095065;28;20026;-32
2022/01/01 03:56:53;;;;;;;;;;;;;;;;;;5094678;28;20315;-34
2022/01/01 03:59:20;;;;;;;;;;;;;;;;;;5094735;28;19985;-30
2022/01/01 04:01:46;;;;;;;;;;;;;;;;;;5094560;28;19962;-36
2022/01/01 04:04:12;;;;;;;;;;;;;;;;;;5094667;28;19915;-30
2022/01/01 04:06:38;;;;;;;;;;;;;;;;;;5094925;28;19915;-33
2022/01/01 04:09:04;;;;;;;;;;;;;;;;;;5094641;28;19924;-32
2022/01/01 04:11:30;;;;;;;;;;;;;;;;;;5094851;28;19988;-35
2022/01/01 04:13:56;;;;;;;;;;;;;;;;;;5094580;28;19908;-30
2022/01/01 04:16:23;;;;;;;;;;;;;;;;;;5094250;28;19916;-32
2022/01/01 04:18:49;;;;;;;;;;;;;;;;;;5093640;28;20002;-31
2022/01/01 04:21:15;;;;;;;;;;;;;;;;;;5094429;28;19996;-37
2022/01/01 04:23:41;;;;;;;;;;;;;;;;;;5094485;28;19915;-31
2022/01/01 04:26:07;;;;;;;;;;;;;;;;;;5094469;28;19938;-31
2022/01/01 04:28:34;;;;;;;;;;;;;;;;;;5095257;28;19919;-28
2022/01/01 04:31:00;;;;;;;;;;;;;;;;;;5094389;28;20006;-33
2022/01/01 04:33:25;;;;;;;;;;;;;;;;;;5094357;28;19956;-32
2022/01/01 04:35:52;;;;;;;;;;;;;;;;;;5094989;28;19916;-31
2022/01/01 04:38:36;;;;;;;;;;;;;;;;;;5098032;28;19912;-31
2022/01/01 04:41:02;;;;;;;;;;;;;;;;;;5097108;28;19920;-29
2022/01/01 04:43:28;;;;;;;;;;;;;;;;;;5097856;28;19991;-31
2022/01/01 04:45:54;;;;;;;;;;;;;;;;;;5096890;28;19939;-33
2022/01/01 04:48:20;;;;;;;;;;;;;;;;;;5097903;28;20309;-37
2022/01/01 04:50:46;;;;;;;;;;;;;;;;;;5097757;28;19943;-36
2022/01/01 04:53:16;;;;;;;;;;;;;;;;;;5097952;28;19947;-33
2022/01/01 04:55:42;;;;;;;;;;;;;;;;;;5097948;28;20012;-32
2022/01/01 04:58:08;;;;;;;;;;;;;;;;;;5097549;28;20050;-34
2022/01/01 05:00:34;;;;;;;;;;;;;;;;;;5097611;28;19953;-31
2022/01/01 05:03:00;;;;;;;;;;;;;;;;;;5097629;28;19983;-32
2022/01/01 05:05:26;;;;;;;;;;;;;;;;;;5097766;28;20339;-32
2022/01/01 05:07:52;;;;;;;;;;;;;;;;;;5096519;28;19912;-31
2022/01/01 05:10:18;;;;;;;;;;;;;;;;;;5097477;28;19950;-31
2022/01/01 05:12:44;;;;;;;;;;;;;;;;;;5096323;28;19912;-31
2022/01/01 05:15:10;;;;;;;;;;;;;;;;;;5097336;28;20317;-33
2022/01/01 05:17:36;;;;;;;;;;;;;;;;;;5097018;28;19928;-29
2022/01/01 05:20:02;;;;;;;;;;;;;;;;;;5097519;28;20381;-33
2022/01/01 05:22:28;;;;;;;;;;;;;;;;;;5097120;28;19908;-31
2022/01/01 05:24:59;;;;;;;;;;;;;;;;;;5097423;28;19969;-30
2022/01/01 05:27:25;;;;;;;;;;;;;;;;;;5097357;28;19961;-34
2022/01/01 05:29:51;;;;;;;;;;;;;;;;;;5097277;28;20330;-34
2022/01/01 05:32:17;;;;;;;;;;;;;;;;;;5096984;28;19908;-36
2022/01/01 05:34:43;;;;;;;;;;;;;;;;;;5097176;28;20008;-33
2022/01/01 05:37:09;;;;;;;;;;;;;;;;;;5096818;28;19970;-34
2022/01/01 05:39:35;;;;;;;;;;;;;;;;;;5097220;28;19908;-31
2022/01/01 05:42:01;;;;;;;;;;;;;;;;;;5096766;28;19919;-31
2022/01/01 05:44:27;;;;;;;;;;;;;;;;;;5097040;28;20338;-29
2022/01/01 05:46:54;;;;;;;;;;;;;;;;;;5096416;28;19908;-29
2022/01/01 05:49:20;;;;;;;;;;;;;;;;;;5096986;28;19930;-31
2022/01/01 05:51:46;;;;;;;;;;;;;;;;;;5096541;28;19907;-29
2022/01/01 05:54:12;;;;;;;;;;;;;;;;;;5096892;28;19920;-31
2022/01/01 05:56:38;;;;;;;;;;;;;;;;;;5096437;28;19923;-30
2022/01/01 05:59:04;;;;;;;;;;;;;;;;;;5096588;28;19908;-31
2022/01/01 06:01:30;;;;;;;;;;;;;;;;;;5096496;28;19944;-34
2022/01/01 06:03:56;;;;;;;;;;;;;;;;;;5096335;28;19919;-31
2022/01/01 06:06:22;;;;;;;;;;;;;;;;;;5096393;28;20291;-33
2022/01/01 06:08:48;;;;;;;;;;;;;;;;;;5096332;28;19961;-31
2022/01/01 06:11:14;;;;;;;;;;;;;;;;;;5096270;28;20002;-33
2022/01/01 06:13:40;;;;;;;;;;;;;;;;;;5095193;28;19908;-29
2022/01/01 06:16:06;;;;;;;;;;;;;;;;;;5096216;28;19999;-31
2022/01/01 06:18:32;;;;;;;;;;;;;;;;;;5096118;28;20030;-33
2022/01/01 06:20:58;;;;;;;;;;;;;;;;;;5096094;28;20316;-33
2022/01/01 06:23:24;;;;;;;;;;;;;;;;;;5095935;28;19908;-34
2022/01/01 06:25:50;;;;;;;;;;;;;;;;;;5095061;28;19999;-36
2022/01/01 06:28:16;;;;;;;;;;;;;;;;;;5095965;28;19908;-34
2022/01/01 06:30:42;;;;;;;;;;;;;;;;;;5095869;28;19985;-33
2022/01/01 06:33:08;;;;;;;;;;;;;;;;;;5095830;28;19908;-31
2022/01/01 06:35:34;;;;;;;;;;;;;;;;;;5096083;28;19916;-31
2022/01/01 06:38:00;;;;;;;;;;;;;;;;;;5095697;28;19994;-29
2022/01/01 06:40:26;;;;;;;;;;;;;;;;;;5095719;28;20358;-33
2022/01/01 06:42:52;;;;;;;;;;;;;;;;;;5095776;28;19915;-33
2022/01/01 06:45:18;;;;;;;;;;;;;;;;;;5095891;28;19923;-30
2022/01/01 06:47:44;;;;;;;;;;;;;;;;;;5095616;28;19925;-30
2022/01/01 06:50:10;;;;;;;;;;;;;;;;;;5095527;28;19913;-34
2022/01/01 06:52:36;;;;;;;;;;;;;;;;;;5095386;28;19912;-33
2022/01/01 06:55:02;;;;;;;;;;;;;;;;;;5095455;28;19912;-33
2022/01/01 06:57:28;;;;;;;;;;;;;;;;;;5095663;28;19967;-31
2022/01/01 06:59:54;;;;;;;;;;;;;;;;;;5094741;28;19912;-36
2022/01/01 07:02:20;;;;;;;;;;;;;;;;;;5095298;28;19908;-30
2022/01/01 07:04:46;;;;;;;;;;;;;;;;;;5095543;28;20381;-35
2022/01/01 07:07:13;;;;;;;;;;;;;;;;;;5095264;28;19908;-36
2022/01/01 07:09:39;;;;;;;;;;;;;;;;;;5095225;28;20007;-34
2022/01/01 07:12:05;;;;;;;;;;;;;;;;;;5095361;28;19912;-31
2022/01/01 07:14:31;;;;;;;;;;;;;;;;;;5094201;28;19935;-33
2022/01/01 07:16:57;;;;;;;;;;;;;;;;;;5094102;28;20346;-35
2022/01/01 07:19:25;;;;;;;;;;;;;;;;;;5094318;28;21258;-29
2022/01/01 07:21:51;;;;;;;;;;;;;;;;;;5095194;28;19965;-29
2022/01/01 07:24:17;;;;;;;;;;;;;;;;;;5095385;28;19912;-37
2022/01/01 07:26:43;;;;;;;;;;;;;;;;;;5095060;28;20305;-34
2022/01/01 07:29:09;;;;;;;;;;;;;;;;;;5095227;28;19922;-31
2022/01/01 07:31:35;;;;;;;;;;;;;;;;;;5094996;28;20382;-36
2022/01/01 07:34:01;;;;;;;;;;;;;;;;;;5094900;28;19912;-35
2022/01/01 07:36:27;;;;;;;;;;;;;;;;;;5094894;28;19915;-34
2022/01/01 07:38:53;;;;;;;;;;;;;;;;;;5094949;28;20406;-31
2022/01/01 07:41:19;;;;;;;;;;;;;;;;;;5094891;28;20315;-31
2022/01/01 07:43:45;;;;;;;;;;;;;;;;;;5093873;28;20003;-33
2022/01/01 07:46:11;;;;;;;;;;;;;;;;;;5095408;28;19923;-34
2022/01/01 07:48:37;;;;;;;;;;;;;;;;;;5094846;28;19951;-33
2022/01/01 07:51:03;;;;;;;;;;;;;;;;;;5095080;28;20004;-30
2022/01/01 07:53:29;;;;;;;;;;;;;;;;;;5094681;28;19923;-33
2022/01/01 07:55:55;;;;;;;;;;;;;;;;;;5094825;28;20273;-35
2022/01/01 07:58:21;;;;;;;;;;;;;;;;;;5094675;28;19927;-32
2022/01/01 08:00:47;;;;;;;;;;;;;;;;;;5094690;28;20311;-32
2022/01/01 08:03:13;;;;;;;;;;;;;;;;;;5094677;28;19915;-37
2022/01/01 08:05:39;;;;;;;;;;;;;;;;;;5094641;28;19912;-37
2022/01/01 08:08:05;;;;;;;;;;;;;;;;;;5094970;28;20294;-34
2022/01/01 08:10:32;;;;;;;;;;;;;;;;;;5096450;28;20213;-36
2022/01/01 08:12:58;;;;;;;;;;;;;;;;;;5098629;28;19912;-29
2022/01/01 08:15:24;;;;;;;;;;;;;;;;;;5097615;28;20307;-28
2022/01/01 08:17:50;;;;;;;;;;;;;;;;;;5098276;28;20332;-33
2022/01/01 08:20:16;;;;;;;;;;;;;;;;;;5098467;28;19919;-34
2022/01/01 08:22:42;;;;;;;;;;;;;;;;;;5098407;28;20005;-30
2022/01/01 08:25:07;;;;;;;;;;;;;;;;;;5098319;28;19912;-30
2022/01/01 08:27:34;;;;;;;;;;;;;;;;;;5097871;28;19919;-30
2022/01/01 08:30:00;;;;;;;;;;;;;;;;;;5097261;28;19923;-34
2022/01/01 08:32:26;;;;;;;;;;;;;;;;;;5098112;28;19995;-34
2022/01/01 08:34:53;;;;;;;;;;;;;;;;;;5098193;28;20377;-31
2022/01/01 08:37:19;;;;;;;;;;;;;;;;;;5097020;28;20002;-32
2022/01/01 08:39:45;;;;;;;;;;;;;;;;;;5097990;28;19962;-31
2022/01/01 08:42:11;;;;;;;;;;;;;;;;;;5098018;28;19908;-34
2022/01/01 08:44:37;;;;;;;;;;;;;;;;;;5098179;28;19912;-32
2022/01/01 08:47:03;;;;;;;;;;;;;;;;;;5097958;28;19908;-32
2022/01/01 08:49:29;;;;;;;;;;;;;;;;;;5097908;28;19934;-30
2022/01/01 08:51:56;;;;;;;;;;;;;;;;;;5098031;28;19912;-33
2022/01/01 08:54:22;;;;;;;;;;;;;;;;;;5097846;28;19912;-35
2022/01/01 08:56:48;;;;;;;;;;;;;;;;;;5097935;28;20027;-31
2022/01/01 08:59:14;;;;;;;;;;;;;;;;;;5097977;28;19950;-34
2022/01/01 09:01:40;;;;;;;;;;;;;;;;;;5097657;28;19919;-30
2022/01/01 09:04:06;;;;;;;;;;;;;;;;;;5097445;28;19908;-34
2022/01/01 09:06:32;;;;;;;;;;;;;;;;;;5097566;28;19965;-33
2022/01/01 09:08:58;;;;;;;;;;;;;;;;;;5097560;28;20355;-31
2022/01/01 09:11:24;;;;;;;;;;;;;;;;;;5098091;28;19912;-31
2022/01/01 09:13:50;;;;;;;;;;;;;;;;;;5096353;28;20035;-32
2022/01/01 09:16:16;;;;;;;;;;;;;;;;;;5097427;28;19931;-33
2022/01/01 09:18:42;;;;;;;;;;;;;;;;;;5097572;28;20344;-32
2022/01/01 09:21:08;;;;;;;;;;;;;;;;;;5097039;28;19962;-31
2022/01/01 09:23:34;;;;;;;;;;;;;;;;;;5096713;28;19912;-33
2022/01/01 09:26:03;;;;;;;;;;;;;;;;;;5097255;28;19912;-35
2022/01/01 09:28:29;;;;;;;;;;;;;;;;;;5097467;28;19935;-31
2022/01/01 09:30:55;;;;;;;;;;;;;;;;;;5097360;28;19912;-28
2022/01/01 09:33:21;;;;;;;;;;;;;;;;;;5097035;28;20335;-31
2022/01/01 09:35:47;;;;;;;;;;;;;;;;;;5096997;28;19974;-35
2022/01/01 09:38:13;;;;;;;;;;;;;;;;;;5096976;28;19916;-32
2022/01/01 09:40:39;;;;;;;;;;;;;;;;;;5097168;28;19919;-31
2022/01/01 09:43:05;;;;;;;;;;;;;;;;;;5096783;28;20247;-31
2022/01/01 09:45:31;;;;;;;;;;;;;;;;;;5096804;28;19912;-29
2022/01/01 09:47:58;;;;;;;;;;;;;;;;;;5097023;28;20220;-33
2022/01/01 09:50:24;;;;;;;;;;;;;;;;;;5096656;28;19912;-31
2022/01/01 09:52:50;;;;;;;;;;;;;;;;;;5096744;28;19969;-32
2022/01/01 09:55:16;;;;;;;;;;;;;;;;;;5095734;28;19908;-32
2022/01/01 09:57:42;;;;;;;;;;;;;;;;;;5096758;28;20346;-34
2022/01/01 10:00:08;;;;;;;;;;;;;;;;;;5096502;28;19912;-31
2022/01/01 10:02:34;;;;;;;;;;;;;;;;;;5096645;28;20284;-27
2022/01/01 10:05:00;;;;;;;;;;;;;;;;;;5096427;28;19912;-31
2022/01/01 10:07:26;;;;;;;;;;;;;;;;;;5096621;28;19908;-35
2022/01/01 10:09:52;;;;;;;;;;;;;;;;;;5096571;28;20042;-32
2022/01/01 10:12:18;;;;;;;;;;;;;;;;;;5096508;28;19969;-34
2022/01/01 10:14:45;;;;;;;;;;;;;;;;;;5096297;28;19912;-31
2022/01/01 10:17:11;;;;;;;;;;;;;;;;;;5096403;28;19919;-34
2022/01/01 10:19:37;;;;;;;;;;;;;;;;;;5096159;28;19951;-30
2022/01/01 10:22:03;;;;;;;;;;;;;;;;;;5096279;28;19922;-32
2022/01/01 10:27:42;;;;;;;;;;;;;;;;;;5096063;28;19912;-30
2022/01/01 10:30:00;;;;;;;;;;;;;;;;;;5095973;28;19962;-31
2022/01/01 10:32:26;;;;;;;;;;;;;;;;;;5095800;28;19909;-34
2022/01/01 10:34:52;;;;;;;;;;;;;;;;;;5094885;28;20358;-33
2022/01/01 10:37:18;;;;;;;;;;;;;;;;;;5095777;28;19912;-33
2022/01/01 10:39:44;;;;;;;;;;;;;;;;;;5095722;28;19915;-31
2022/01/01 10:42:10;;;;;;;;;;;;;;;;;;5095797;28;20003;-36
2022/01/01 10:44:38;;;;;;;;;;;;;;;;;;5095921;28;19919;-32
2022/01/01 10:47:04;;;;;;;;;;;;;;;;;;5095623;28;19961;-33
2022/01/01 10:52:05;;;;;;;;;;;;;;;;;;5095835;28;20323;-31
2022/01/01 10:54:31;;;;;;;;;;;;;;;;;;5095505;28;20350;-30
2022/01/01 10:56:57;;;;;;;;;;;;;;;;;;5095381;28;19926;-34
2022/01/01 10:59:23;;;;;;;;;;;;;;;;;;5095419;28;19912;-31
2022/01/01 11:01:49;;;;;;;;;;;;;;;;;;5095345;28;19908;-29
2022/01/01 11:04:15;;;;;;;;;;;;;;;;;;5095413;28;20330;-29
2022/01/01 11:06:42;;;;;;;;;;;;;;;;;;5095598;28;19922;-32
2022/01/01 11:09:13;;;;;;;;;;;;;;;;;;5095366;28;19908;-29
2022/01/01 11:11:39;;;;;;;;;;;;;;;;;;5095334;28;20007;-34
2022/01/01 11:14:08;;;;;;;;;;;;;;;;;;5095192;28;19943;-32
2022/01/01 11:16:34;;;;;;;;;;;;;;;;;;5093935;28;19916;-35
2022/01/01 11:19:00;;;;;;;;;;;;;;;;;;5095185;28;19912;-34
2022/01/01 11:21:26;;;;;;;;;;;;;;;;;;5094479;28;19908;-31
2022/01/01 11:23:52;;;;;;;;;;;;;;;;;;5094049;28;19912;-34
2022/01/01 11:26:18;;;;;;;;;;;;;;;;;;5095091;28;19912;-36
2022/01/01 11:28:44;;;;;;;;;;;;;;;;;;5095090;28;20004;-35
2022/01/01 11:31:10;;;;;;;;;;;;;;;;;;5094059;28;20318;-34
2022/01/01 11:33:37;;;;;;;;;;;;;;;;;;5094914;28;19912;-35
2022/01/01 11:36:02;;;;;;;;;;;;;;;;;;5095224;28;20031;-32
2022/01/01 11:38:29;;;;;;;;;;;;;;;;;;5094933;28;20347;-30
2022/01/01 11:40:55;;;;;;;;;;;;;;;;;;5095461;28;19939;-34
2022/01/01 11:43:21;;;;;;;;;;;;;;;;;;5094822;28;19912;-31
2022/01/01 11:45:47;;;;;;;;;;;;;;;;;;5097196;28;19938;-34
2022/01/01 11:48:13;;;;;;;;;;;;;;;;;;5099117;28;19912;-33
2022/01/01 11:50:39;;;;;;;;;;;;;;;;;;5099058;28;19912;-31
2022/01/01 11:53:05;;;;;;;;;;;;;;;;;;5098988;28;19935;-34
2022/01/01 11:55:31;;;;;;;;;;;;;;;;;;5099156;28;19912;-34
2022/01/01 11:57:58;;;;;;;;;;;;;;;;;;5098864;28;20220;-28
2022/01/01 12:00:24;;;;;;;;;;;;;;;;;;5097849;28;19920;-30
2022/01/01 12:02:51;;;;;;;;;;;;;;;;;;5099043;28;19987;-35
2022/01/01 12:05:17;;;;;;;;;;;;;;;;;;5097675;28;19923;-30
2022/01/01 12:07:43;;;;;;;;;;;;;;;;;;5098665;28;20006;-31
2022/01/01 12:10:09;;;;;;;;;;;;;;;;;;5098602;28;20390;-34
2022/01/01 12:12:35;;;;;;;;;;;;;;;;;;5098706;28;19940;-31
2022/01/01 12:15:01;;;;;;;;;;;;;;;;;;5098582;28;20030;-30
2022/01/01 12:17:27;;;;;;;;;;;;;;;;;;5098305;28;20296;-34
2022/01/01 12:19:53;;;;;;;;;;;;;;;;;;5098456;28;20048;-35
2022/01/01 12:22:19;;;;;;;;;;;;;;;;;;5098398;28;19908;-33
2022/01/01 12:24:45;;;;;;;;;;;;;;;;;;5098633;28;19923;-33
2022/01/01 12:27:11;;;;;;;;;;;;;;;;;;5097368;28;19908;-35
2022/01/01 12:29:37;;;;;;;;;;;;;;;;;;5098313;28;19919;-35
2022/01/01 12:32:05;;;;;;;;;;;;;;;;;;5098435;28;19916;-32
2022/01/01 12:34:32;;;;;;;;;;;;;;;;;;5098457;28;19953;-29
2022/01/01 12:36:58;;;;;;;;;;;;;;;;;;5098091;28;19916;-29
2022/01/01 12:39:24;;;;;;;;;;;;;;;;;;5098113;28;19912;-33
2022/01/01 12:41:54;;;;;;;;;;;;;;;;;;5098261;28;19912;-36
2022/01/01 12:44:20;;;;;;;;;;;;;;;;;;5098009;28;19908;-37
2022/01/01 12:46:46;;;;;;;;;;;;;;;;;;5097969;28;19912;-29
2022/01/01 12:49:12;;;;;;;;;;;;;;;;;;5097924;28;19919;-34
2022/01/01 12:51:38;;;;;;;;;;;;;;;;;;5097882;28;19912;-32
2022/01/01 12:54:04;;;;;;;;;;;;;;;;;;5097982;28;19912;-34
2022/01/01 12:56:30;;;;;;;;;;;;;;;;;;5095640;28;19934;-28
2022/01/01 12:58:56;;;;;;;;;;;;;;;;;;5097735;28;19912;-34
2022/01/01 13:01:22;;;;;;;;;;;;;;;;;;5097996;28;20373;-35
2022/01/01 13:03:48;;;;;;;;;;;;;;;;;;5097568;28;20250;-29
2022/01/01 13:06:14;;;;;;;;;;;;;;;;;;5097867;28;19908;-29
2022/01/01 13:08:41;;;;;;;;;;;;;;;;;;5097595;28;19912;-31
2022/01/01 13:11:07;;;;;;;;;;;;;;;;;;5096565;28;19943;-33
2022/01/01 13:13:33;;;;;;;;;;;;;;;;;;5097370;28;19912;-32
2022/01/01 13:15:59;;;;;;;;;;;;;;;;;;5097463;28;19912;-34
2022/01/01 13:18:25;;;;;;;;;;;;;;;;;;5097051;28;19970;-35
2022/01/01 13:20:52;;;;;;;;;;;;;;;;;;5097633;28;19977;-37
2022/01/01 13:23:18;;;;;;;;;;;;;;;;;;5097186;28;19912;-31
2022/01/01 13:25:44;;;;;;;;;;;;;;;;;;5097556;28;20287;-29
2022/01/01 13:28:10;;;;;;;;;;;;;;;;;;5097444;28;19920;-33
2022/01/01 13:30:36;;;;;;;;;;;;;;;;;;5097098;28;20010;-35
2022/01/01 13:33:02;;;;;;;;;;;;;;;;;;5097095;28;19916;-31
2022/01/01 13:35:29;;;;;;;;;;;;;;;;;;5097081;28;19912;-30
2022/01/01 13:37:55;;;;;;;;;;;;;;;;;;5097223;28;19923;-36
2022/01/01 13:40:21;;;;;;;;;;;;;;;;;;5097233;28;19912;-35
2022/01/01 13:42:47;;;;;;;;;;;;;;;;;;5096892;28;20327;-29
2022/01/01 13:45:13;;;;;;;;;;;;;;;;;;5097130;28;19916;-35
2022/01/01 13:47:39;;;;;;;;;;;;;;;;;;5096844;28;19918;-36
2022/01/01 13:50:05;;;;;;;;;;;;;;;;;;5096830;28;19955;-35
2022/01/01 13:52:34;;;;;;;;;;;;;;;;;;5096656;28;20343;-31
2022/01/01 13:55:02;;;;;;;;;;;;;;;;;;5096617;28;19999;-31
2022/01/01 13:57:29;;;;;;;;;;;;;;;;;;5096603;28;19912;-35
2022/01/01 13:59:55;;;;;;;;;;;;;;;;;;5096571;28;19939;-33
2022/01/01 14:02:21;;;;;;;;;;;;;;;;;;5096400;28;19924;-31
2022/01/01 14:04:47;;;;;;;;;;;;;;;;;;5096385;28;19916;-30
2022/01/01 14:07:13;;;;;;;;;;;;;;;;;;5096710;28;19976;-31
2022/01/01 14:09:39;;;;;;;;;;;;;;;;;;5096379;28;20339;-28
2022/01/01 14:12:06;;;;;;;;;;;;;;;;;;5096291;28;19914;-30
2022/01/01 14:14:32;;;;;;;;;;;;;;;;;;5096246;28;19912;-36
2022/01/01 14:16:58;;;;;;;;;;;;;;;;;;5096132;28;19927;-29
2022/01/01 14:19:24;;;;;;;;;;;;;;;;;;5096197;28;19912;-31
2022/01/01 14:21:50;;;;;;;;;;;;;;;;;;5096291;28;19969;-32
2022/01/01 14:24:16;;;;;;;;;;;;;;;;;;5096391;28;19916;-34
2022/01/01 14:26:42;;;;;;;;;;;;;;;;;;5096017;28;19912;-32
2022/01/01 14:29:08;;;;;;;;;;;;;;;;;;5096322;28;19915;-34
2022/01/01 14:31:34;;;;;;;;;;;;;;;;;;5094987;28;19912;-33
2022/01/01 14:34:00;;;;;;;;;;;;;;;;;;5095921;28;19919;-30
2022/01/01 14:36:26;;;;;;;;;;;;;;;;;;5095808;28;19912;-28
2022/01/01 14:38:52;;;;;;;;;;;;;;;;;;5095751;28;19912;-32
2022/01/01 14:41:19;;;;;;;;;;;;;;;;;;5095754;28;20057;-34
2022/01/01 14:43:45;;;;;;;;;;;;;;;;;;5095631;28;19995;-33
2022/01/01 14:46:11;;;;;;;;;;;;;;;;;;5096011;28;19999;-30
2022/01/01 14:48:37;;;;;;;;;;;;;;;;;;5095650;28;20032;-32
2022/01/01 14:51:03;;;;;;;;;;;;;;;;;;5094671;28;20044;-31
2022/01/01 14:53:29;;;;;;;;;;;;;;;;;;5095603;28;19962;-37
2022/01/01 14:55:55;;;;;;;;;;;;;;;;;;5095552;28;19908;-34
2022/01/01 14:58:21;;;;;;;;;;;;;;;;;;5095421;28;20007;-31
2022/01/01 15:00:47;;;;;;;;;;;;;;;;;;5095420;28;19919;-30
2022/01/01 15:03:14;;;;;;;;;;;;;;;;;;5094405;28;19931;-37
2022/01/01 15:05:40;;;;;;;;;;;;;;;;;;5095616;28;19912;-32
2022/01/01 15:08:06;;;;;;;;;;;;;;;;;;5095379;28;20324;-30
2022/01/01 15:10:32;;;;;;;;;;;;;;;;;;5095305;28;19912;-34
2022/01/01 15:12:58;;;;;;;;;;;;;;;;;;5095306;28;19919;-30
2022/01/01 15:15:24;;;;;;;;;;;;;;;;;;5095460;28;19908;-31
2022/01/01 15:17:50;;;;;;;;;;;;;;;;;;5093966;28;19927;-34
2022/01/01 15:20:16;;;;;;;;;;;;;;;;;;5094864;28;20253;-32
2022/01/01 15:22:42;;;;;;;;;;;;;;;;;;5095077;28;19908;-31
2022/01/01 15:25:08;;;;;;;;;;;;;;;;;;5095357;28;19943;-31
2022/01/01 15:27:34;;;;;;;;;;;;;;;;;;5095026;28;20360;-31
2022/01/01 15:37:58;;;;;;;;;;;;;;;;;;5094995;28;19973;-32
2022/01/01 15:40:27;;;;;;;;;;;;;;;;;;5095274;28;20227;-34
2022/01/01 15:42:53;;;;;;;;;;;;;;;;;;5094877;28;20248;-28
2022/01/01 15:45:19;;;;;;;;;;;;;;;;;;5094947;28;19912;-31
2022/01/01 15:47:45;;;;;;;;;;;;;;;;;;5095130;28;20236;-34
2022/01/01 15:50:14;;;;;;;;;;;;;;;;;;5094873;28;20260;-31
2022/01/01 15:52:40;;;;;;;;;;;;;;;;;;5093761;28;19908;-30
2022/01/01 15:55:06;;;;;;;;;;;;;;;;;;5094833;28;19919;-34
2022/01/01 15:57:32;;;;;;;;;;;;;;;;;;5095043;28;19912;-34
2022/01/01 15:59:58;;;;;;;;;;;;;;;;;;5095054;28;20387;-34
2022/01/01 16:02:24;;;;;;;;;;;;;;;;;;5094674;28;19915;-30
2022/01/01 16:04:50;;;;;;;;;;;;;;;;;;5093674;28;19912;-35
2022/01/01 16:07:16;;;;;;;;;;;;;;;;;;5094696;28;19927;-35
2022/01/01 16:09:42;;;;;;;;;;;;;;;;;;5094663;28;20279;-30
2022/01/01 16:12:08;;;;;;;;;;;;;;;;;;5094778;28;19916;-34
2022/01/01 16:14:37;;;;;;;;;;;;;;;;;;5094850;28;20390;-33
2022/01/01 16:17:03;;;;;;;;;;;;;;;;;;5094197;28;19924;-36
2022/01/01 16:19:29;;;;;;;;;;;;;;;;;;5094531;28;20366;-33
2022/01/01 16:21:55;;;;;;;;;;;;;;;;;;5094472;28;20006;-31
2022/01/01 16:24:21;;;;;;;;;;;;;;;;;;5094570;28;20312;-33
2022/01/01 16:26:47;;;;;;;;;;;;;;;;;;5094768;28;20224;-33
2022/01/01 16:29:13;;;;;;;;;;;;;;;;;;5094508;28;19919;-35
2022/01/01 16:31:39;;;;;;;;;;;;;;;;;;5096362;28;19916;-34
2022/01/01 16:34:05;;;;;;;;;;;;;;;;;;5098205;28;19969;-31
2022/01/01 16:36:31;;;;;;;;;;;;;;;;;;5098172;28;19912;-31
2022/01/01 16:39:01;;;;;;;;;;;;;;;;;;5099106;28;19916;-31
2022/01/01 16:41:27;;;;;;;;;;;;;;;;;;5098071;28;19908;-35
2022/01/01 16:43:53;;;;;;;;;;;;;;;;;;5098030;28;19923;-31
2022/01/01 16:46:19;;;;;;;;;;;;;;;;;;5097977;28;19912;-30
2022/01/01 16:48:45;;;;;;;;;;;;;;;;;;5098285;28;20302;-31
2022/01/01 16:51:11;;;;;;;;;;;;;;;;;;5098118;28;19934;-30
2022/01/01 16:53:40;;;;;;;;;;;;;;;;;;5097844;28;19908;-34